Time;durP1;ratioP1;P1;durP2;ratioP2;P2;SDS_P1;SDS_P2;PMS_P1;PMS_P2;Temp;Humidity;BMP_temperature;BMP_pressure;BME280_temperature;BME280_humidity;BME280_pressure;Samples;Min_cycle;Max_cycle;Signal;HPM_P1;HPM_P2
2022/07/13 00:00:44;;;;;;;9.55;7.57;;;;;;;;;;5021321;28;20021;-76
2022/07/13 00:03:09;;;;;;;8.82;7.13;;;;;;;;;;5012326;28;20040;-79
2022/07/13 00:05:35;;;;;;;8.63;6.80;;;;;;;;;;5019083;28;20041;-76
2022/07/13 00:08:00;;;;;;;7.35;6.10;;;;;;;;;;5020701;28;20053;-79
2022/07/13 00:10:25;;;;;;;8.57;7.07;;;;;;;;;;5025035;28;20033;-75
2022/07/13 00:12:50;;;;;;;7.43;5.90;;;;;;;;;;5021749;28;20289;-74
2022/07/13 00:15:16;;;;;;;7.60;6.27;;;;;;;;;;5005926;28;20083;-78
2022/07/13 00:17:41;;;;;;;6.20;5.60;;;;;;;;;;5019803;28;20770;-75
2022/07/13 00:20:06;;;;;;;7.43;6.30;;;;;;;;;;5023837;28;20037;-77
2022/07/13 00:22:32;;;;;;;9.35;6.00;;;;;;;;;;5017834;28;20749;-77
2022/07/13 00:24:57;;;;;;;6.50;5.90;;;;;;;;;;5008447;28;20038;-74
2022/07/13 00:27:23;;;;;;;10.07;6.82;;;;;;;;;;5022418;28;20695;-77
2022/07/13 00:29:48;;;;;;;7.53;5.67;;;;;;;;;;5019957;28;20124;-75
2022/07/13 00:32:13;;;;;;;9.90;5.80;;;;;;;;;;5019193;28;20439;-74
2022/07/13 00:34:38;;;;;;;6.67;5.73;;;;;;;;;;5019886;28;20021;-77
2022/07/13 00:37:03;;;;;;;7.72;6.10;;;;;;;;;;5004428;28;20274;-76
2022/07/13 00:39:29;;;;;;;5.90;5.40;;;;;;;;;;5021496;28;20030;-77
2022/07/13 00:41:54;;;;;;;10.03;6.33;;;;;;;;;;5023498;28;20025;-78
2022/07/13 00:44:19;;;;;;;7.07;5.55;;;;;;;;;;5020646;28;20286;-74
2022/07/13 00:46:51;;;;;;;6.60;5.75;;;;;;;;;;5004312;28;20044;-77
2022/07/13 00:49:16;;;;;;;5.72;5.20;;;;;;;;;;5023846;28;20049;-74
2022/07/13 00:51:42;;;;;;;5.55;4.65;;;;;;;;;;5025187;28;20077;-78
2022/07/13 00:54:07;;;;;;;6.05;5.45;;;;;;;;;;5023836;28;20036;-74
2022/07/13 00:56:32;;;;;;;6.13;5.50;;;;;;;;;;5004067;28;20045;-77
2022/07/13 00:58:59;;;;;;;6.40;5.47;;;;;;;;;;5028348;28;20037;-75
2022/07/13 01:01:24;;;;;;;5.82;5.22;;;;;;;;;;5021606;28;20034;-76
2022/07/13 01:03:49;;;;;;;7.38;5.28;;;;;;;;;;5022256;28;20102;-75
2022/07/13 01:06:15;;;;;;;7.40;6.30;;;;;;;;;;5022887;28;20102;-75
2022/07/13 01:08:40;;;;;;;6.40;5.38;;;;;;;;;;5007211;28;20030;-78
2022/07/13 01:11:06;;;;;;;13.05;5.68;;;;;;;;;;5009288;28;20025;-78
2022/07/13 01:13:33;;;;;;;6.30;5.38;;;;;;;;;;5005798;28;20026;-76
2022/07/13 01:15:58;;;;;;;6.88;6.18;;;;;;;;;;5023970;28;20485;-76
2022/07/13 01:18:24;;;;;;;6.20;5.60;;;;;;;;;;5025525;28;20025;-76
2022/07/13 01:20:50;;;;;;;6.63;5.78;;;;;;;;;;5023763;28;20021;-78
2022/07/13 01:23:16;;;;;;;6.40;5.68;;;;;;;;;;5021371;28;20040;-75
2022/07/13 01:25:41;;;;;;;7.55;5.35;;;;;;;;;;5026281;28;20029;-78
2022/07/13 01:28:07;;;;;;;6.30;5.50;;;;;;;;;;5019993;28;20072;-78
2022/07/13 01:30:32;;;;;;;5.85;5.25;;;;;;;;;;5019921;28;20060;-77
2022/07/13 01:32:57;;;;;;;6.35;5.45;;;;;;;;;;5004628;28;20802;-77
2022/07/13 01:35:23;;;;;;;6.22;5.25;;;;;;;;;;5004694;28;20030;-78
2022/07/13 01:37:49;;;;;;;9.95;5.78;;;;;;;;;;5020793;28;20025;-75
2022/07/13 01:40:15;;;;;;;6.10;5.50;;;;;;;;;;5011373;28;20346;-75
2022/07/13 01:42:43;;;;;;;7.60;5.55;;;;;;;;;;5024882;28;20029;-79
2022/07/13 01:45:08;;;;;;;6.68;5.85;;;;;;;;;;5024414;28;20163;-77
2022/07/13 01:47:41;;;;;;;7.10;6.13;;;;;;;;;;5019232;28;20151;-76
2022/07/13 01:50:10;;;;;;;7.10;5.88;;;;;;;;;;5025386;28;20040;-78
2022/07/13 01:52:35;;;;;;;6.72;5.85;;;;;;;;;;4997733;28;20045;-78
2022/07/13 01:55:01;;;;;;;6.30;5.70;;;;;;;;;;5016287;28;20080;-78
2022/07/13 01:57:26;;;;;;;5.70;5.20;;;;;;;;;;5024914;28;20037;-78
2022/07/13 01:59:51;;;;;;;7.00;5.00;;;;;;;;;;5019921;28;20108;-76
2022/07/13 02:02:17;;;;;;;6.30;5.70;;;;;;;;;;5019607;28;20855;-75
2022/07/13 02:04:42;;;;;;;8.33;6.10;;;;;;;;;;5019457;28;20270;-78
2022/07/13 02:07:07;;;;;;;8.80;5.88;;;;;;;;;;5028532;28;20299;-79
2022/07/13 02:09:33;;;;;;;7.10;5.95;;;;;;;;;;5019615;28;20028;-78
2022/07/13 02:11:58;;;;;;;6.45;5.82;;;;;;;;;;5025557;28;20048;-78
2022/07/13 02:14:23;;;;;;;7.20;6.50;;;;;;;;;;5020551;28;20692;-79
2022/07/13 02:16:48;;;;;;;6.50;5.75;;;;;;;;;;5024343;28;20325;-75
2022/07/13 02:19:13;;;;;;;6.80;5.55;;;;;;;;;;5023549;28;20060;-77
2022/07/13 02:21:39;;;;;;;8.10;6.57;;;;;;;;;;5025868;28;20172;-76
2022/07/13 02:24:04;;;;;;;5.93;5.20;;;;;;;;;;5004695;28;20270;-78
2022/07/13 02:26:29;;;;;;;6.88;6.05;;;;;;;;;;5024944;28;20462;-75
2022/07/13 02:28:54;;;;;;;10.05;5.95;;;;;;;;;;5024898;28;20028;-78
2022/07/13 02:31:20;;;;;;;6.30;5.70;;;;;;;;;;5021998;28;20041;-78
2022/07/13 02:33:46;;;;;;;7.30;6.25;;;;;;;;;;5021451;28;20022;-76
2022/07/13 02:36:11;;;;;;;7.18;5.57;;;;;;;;;;5003580;28;20036;-79
2022/07/13 02:38:36;;;;;;;6.90;6.20;;;;;;;;;;5024228;28;20425;-78
2022/07/13 02:41:01;;;;;;;6.77;6.13;;;;;;;;;;5022673;28;20293;-75
2022/07/13 02:43:26;;;;;;;9.18;6.72;;;;;;;;;;5023183;28;20381;-79
2022/07/13 02:45:52;;;;;;;8.55;6.25;;;;;;;;;;5022023;28;20124;-77
2022/07/13 02:48:18;;;;;;;8.23;6.78;;;;;;;;;;5024517;28;20041;-75
2022/07/13 02:50:43;;;;;;;8.48;6.85;;;;;;;;;;5022791;28;20025;-78
2022/07/13 02:53:09;;;;;;;9.40;6.90;;;;;;;;;;5005436;28;20029;-78
2022/07/13 02:55:34;;;;;;;7.43;6.15;;;;;;;;;;5019647;28;20036;-78
2022/07/13 02:58:00;;;;;;;7.80;6.93;;;;;;;;;;5005282;28;20021;-78
2022/07/13 03:00:25;;;;;;;8.73;7.47;;;;;;;;;;5021439;28;20278;-79
2022/07/13 03:02:50;;;;;;;8.90;6.82;;;;;;;;;;5020539;28;20084;-78
2022/07/13 03:05:16;;;;;;;8.03;7.13;;;;;;;;;;5018823;28;20045;-76
2022/07/13 03:07:41;;;;;;;8.70;7.28;;;;;;;;;;5019065;28;20957;-76
2022/07/13 03:10:07;;;;;;;10.75;7.72;;;;;;;;;;5018310;28;20017;-75
2022/07/13 03:12:32;;;;;;;7.80;5.95;;;;;;;;;;5025550;28;20719;-78
2022/07/13 03:14:57;;;;;;;9.05;7.88;;;;;;;;;;5017012;28;20021;-78
2022/07/13 03:17:25;;;;;;;10.48;7.78;;;;;;;;;;5025103;28;20322;-76
2022/07/13 03:19:51;;;;;;;9.13;7.50;;;;;;;;;;5020808;28;20051;-78
2022/07/13 03:22:16;;;;;;;12.45;7.90;;;;;;;;;;5021120;28;20033;-78
2022/07/13 03:24:41;;;;;;;8.13;6.53;;;;;;;;;;5020054;28;20307;-76
2022/07/13 03:27:06;;;;;;;8.80;6.35;;;;;;;;;;5005391;28;20037;-76
2022/07/13 03:29:32;;;;;;;9.18;6.85;;;;;;;;;;5018397;28;20028;-80
2022/07/13 03:31:57;;;;;;;8.32;6.95;;;;;;;;;;5019425;28;20026;-74
2022/07/13 03:34:22;;;;;;;7.75;6.95;;;;;;;;;;5017378;28;20028;-74
2022/07/13 03:36:48;;;;;;;9.23;7.57;;;;;;;;;;5019739;28;20581;-75
2022/07/13 03:39:13;;;;;;;8.40;6.80;;;;;;;;;;5006189;28;20278;-77
2022/07/13 03:41:38;;;;;;;6.95;5.97;;;;;;;;;;5020488;28;20109;-76
2022/07/13 03:44:03;;;;;;;8.00;6.57;;;;;;;;;;5022552;28;20049;-77
2022/07/13 03:46:29;;;;;;;6.40;5.40;;;;;;;;;;5016465;28;20486;-75
2022/07/13 03:48:54;;;;;;;8.30;6.55;;;;;;;;;;5022384;28;20056;-78
2022/07/13 03:51:19;;;;;;;9.05;5.88;;;;;;;;;;5019082;28;20017;-75
2022/07/13 03:53:44;;;;;;;6.38;5.63;;;;;;;;;;5005040;28;20562;-78
2022/07/13 03:56:10;;;;;;;6.60;5.33;;;;;;;;;;5026022;28;20025;-79
2022/07/13 03:58:35;;;;;;;6.40;5.32;;;;;;;;;;5005055;28;20276;-74
2022/07/13 04:01:00;;;;;;;5.78;4.72;;;;;;;;;;5020877;28;20094;-77
2022/07/13 04:03:25;;;;;;;4.90;4.40;;;;;;;;;;5014173;28;20033;-74
2022/07/13 04:05:51;;;;;;;5.65;4.15;;;;;;;;;;5007452;28;20187;-75
2022/07/13 04:08:17;;;;;;;5.22;4.68;;;;;;;;;;5020581;28;20124;-76
2022/07/13 04:10:42;;;;;;;6.30;4.25;;;;;;;;;;5003646;28;20189;-75
2022/07/13 04:13:08;;;;;;;6.67;4.90;;;;;;;;;;5020695;28;20154;-76
2022/07/13 04:15:33;;;;;;;4.40;4.00;;;;;;;;;;5023043;28;20677;-78
2022/07/13 04:17:58;;;;;;;6.78;4.20;;;;;;;;;;5019908;28;20026;-75
2022/07/13 04:20:23;;;;;;;4.30;3.90;;;;;;;;;;5005255;28;20024;-76
2022/07/13 04:22:48;;;;;;;6.90;4.18;;;;;;;;;;5018202;28;20309;-79
2022/07/13 04:25:14;;;;;;;5.50;4.25;;;;;;;;;;5021543;28;20014;-79
2022/07/13 04:27:39;;;;;;;4.78;4.05;;;;;;;;;;5020039;28;20040;-79
2022/07/13 04:30:04;;;;;;;6.43;3.78;;;;;;;;;;5019993;28;20041;-77
2022/07/13 04:32:29;;;;;;;3.78;3.28;;;;;;;;;;5018872;28;20470;-76
2022/07/13 04:34:55;;;;;;;4.77;3.97;;;;;;;;;;5020005;28;20034;-75
2022/07/13 04:37:20;;;;;;;4.15;3.67;;;;;;;;;;5022131;28;20273;-79
2022/07/13 04:39:45;;;;;;;3.95;3.20;;;;;;;;;;5015861;28;20018;-82
2022/07/13 04:42:10;;;;;;;5.80;3.33;;;;;;;;;;5019530;28;20629;-78
2022/07/13 04:44:35;;;;;;;3.77;3.33;;;;;;;;;;5004724;28;20477;-79
2022/07/13 04:47:01;;;;;;;3.67;3.35;;;;;;;;;;5016266;28;20299;-76
2022/07/13 04:49:26;;;;;;;6.07;3.70;;;;;;;;;;4997135;28;20026;-78
2022/07/13 04:51:51;;;;;;;3.92;3.50;;;;;;;;;;5022087;28;20293;-79
2022/07/13 04:54:17;;;;;;;5.28;3.28;;;;;;;;;;5000026;28;20034;-75
2022/07/13 04:56:42;;;;;;;4.60;2.88;;;;;;;;;;5019675;28;20101;-76
2022/07/13 04:59:07;;;;;;;4.30;2.85;;;;;;;;;;5017685;28;20438;-77
2022/07/13 05:01:32;;;;;;;7.97;3.75;;;;;;;;;;5012159;28;20029;-76
2022/07/13 05:03:58;;;;;;;3.45;2.90;;;;;;;;;;5012008;28;20057;-78
2022/07/13 05:06:23;;;;;;;4.90;2.88;;;;;;;;;;5015546;28;20046;-78
2022/07/13 05:08:49;;;;;;;5.35;2.38;;;;;;;;;;5016516;28;20124;-77
2022/07/13 05:11:14;;;;;;;4.60;3.30;;;;;;;;;;5022183;28;20021;-76
2022/07/13 05:13:39;;;;;;;3.63;2.75;;;;;;;;;;5022365;28;20034;-75
2022/07/13 05:16:04;;;;;;;4.05;3.20;;;;;;;;;;5004255;28;20041;-77
2022/07/13 05:18:29;;;;;;;3.55;2.95;;;;;;;;;;5021855;28;20033;-75
2022/07/13 05:20:55;;;;;;;4.68;3.00;;;;;;;;;;5023395;28;20464;-77
2022/07/13 05:23:20;;;;;;;4.55;2.83;;;;;;;;;;4999857;28;20026;-74
2022/07/13 05:25:45;;;;;;;7.13;3.00;;;;;;;;;;5019945;28;20033;-75
2022/07/13 05:28:10;;;;;;;5.50;3.20;;;;;;;;;;5004355;28;20037;-78
2022/07/13 05:30:35;;;;;;;4.17;2.90;;;;;;;;;;5024691;28;20029;-74
2022/07/13 05:33:01;;;;;;;4.88;3.10;;;;;;;;;;5023635;28;20282;-78
2022/07/13 05:35:26;;;;;;;4.45;2.75;;;;;;;;;;5024366;28;20107;-78
2022/07/13 05:37:51;;;;;;;4.43;3.25;;;;;;;;;;5021005;28;20519;-76
2022/07/13 05:40:16;;;;;;;3.80;2.97;;;;;;;;;;5024673;28;20457;-75
2022/07/13 05:42:42;;;;;;;3.72;3.15;;;;;;;;;;5001057;28;20329;-75
2022/07/13 05:45:07;;;;;;;7.50;3.17;;;;;;;;;;5022237;28;20030;-77
2022/07/13 05:47:32;;;;;;;4.25;3.17;;;;;;;;;;5004110;28;21682;-77
2022/07/13 05:49:58;;;;;;;3.43;3.13;;;;;;;;;;5022421;28;20039;-75
2022/07/13 05:52:24;;;;;;;8.50;3.70;;;;;;;;;;5025418;28;20274;-75
2022/07/13 05:54:54;;;;;;;5.53;3.28;;;;;;;;;;5021649;28;20044;-78
2022/07/13 05:57:19;;;;;;;6.55;4.03;;;;;;;;;;5023856;28;20141;-76
2022/07/13 05:59:45;;;;;;;6.85;4.38;;;;;;;;;;5021925;28;20382;-77
2022/07/13 06:02:10;;;;;;;6.10;4.38;;;;;;;;;;5020290;28;20124;-76
2022/07/13 06:04:36;;;;;;;9.52;4.05;;;;;;;;;;5023795;28;20140;-75
2022/07/13 06:07:01;;;;;;;6.38;4.45;;;;;;;;;;5024523;28;20053;-78
2022/07/13 06:09:27;;;;;;;16.42;4.80;;;;;;;;;;5008061;28;20067;-79
2022/07/13 06:11:53;;;;;;;5.63;4.88;;;;;;;;;;5023289;28;20461;-79
2022/07/13 06:14:18;;;;;;;6.20;5.03;;;;;;;;;;5004980;28;20029;-79
2022/07/13 06:16:43;;;;;;;7.45;5.85;;;;;;;;;;5026271;28;20279;-77
2022/07/13 06:19:08;;;;;;;13.82;5.57;;;;;;;;;;5029444;28;20026;-78
2022/07/13 06:21:33;;;;;;;7.13;4.97;;;;;;;;;;5027141;28;20305;-79
2022/07/13 06:23:59;;;;;;;9.43;6.38;;;;;;;;;;5026797;28;20401;-76
2022/07/13 06:26:24;;;;;;;10.35;8.00;;;;;;;;;;5030592;28;20374;-76
2022/07/13 06:28:49;;;;;;;8.32;5.35;;;;;;;;;;5020964;28;20412;-76
2022/07/13 06:31:14;;;;;;;8.85;5.50;;;;;;;;;;5026799;28;20076;-78
2022/07/13 06:33:41;;;;;;;16.27;6.22;;;;;;;;;;5010487;28;20030;-79
2022/07/13 06:36:07;;;;;;;8.32;6.53;;;;;;;;;;5020943;28;20098;-80
2022/07/13 06:38:32;;;;;;;10.15;6.90;;;;;;;;;;5029821;28;20022;-77
2022/07/13 06:40:57;;;;;;;11.93;7.70;;;;;;;;;;5022013;28;20071;-79
2022/07/13 06:43:22;;;;;;;15.37;10.30;;;;;;;;;;5005023;28;20060;-79
2022/07/13 06:45:47;;;;;;;12.07;7.72;;;;;;;;;;5003027;28;20294;-78
2022/07/13 06:48:13;;;;;;;13.47;8.70;;;;;;;;;;5003115;28;20025;-77
2022/07/13 06:50:38;;;;;;;11.23;7.53;;;;;;;;;;5025429;28;20279;-79
2022/07/13 06:53:04;;;;;;;14.98;8.02;;;;;;;;;;5022503;28;20353;-79
2022/07/13 06:55:29;;;;;;;12.77;8.93;;;;;;;;;;5002364;28;20040;-80
2022/07/13 06:57:55;;;;;;;10.93;7.78;;;;;;;;;;5007731;28;21029;-77
2022/07/13 07:00:20;;;;;;;9.82;6.75;;;;;;;;;;5023955;28;20029;-77
2022/07/13 07:02:45;;;;;;;12.38;8.27;;;;;;;;;;5003216;28;20025;-78
2022/07/13 07:05:11;;;;;;;13.00;9.50;;;;;;;;;;5023519;28;20095;-79
2022/07/13 07:07:36;;;;;;;16.42;10.27;;;;;;;;;;5011639;28;20040;-79
2022/07/13 07:10:02;;;;;;;13.73;9.02;;;;;;;;;;5026020;28;20658;-77
2022/07/13 07:12:27;;;;;;;13.98;10.27;;;;;;;;;;5022602;28;20053;-78
2022/07/13 07:14:52;;;;;;;14.27;9.95;;;;;;;;;;5008138;28;20436;-77
2022/07/13 07:17:18;;;;;;;13.68;9.60;;;;;;;;;;5007040;28;20539;-79
2022/07/13 07:19:44;;;;;;;16.45;10.45;;;;;;;;;;5003832;28;20355;-79
2022/07/13 07:22:09;;;;;;;14.68;9.90;;;;;;;;;;5007872;28;20135;-79
2022/07/13 07:24:35;;;;;;;13.52;9.52;;;;;;;;;;5023045;28;20072;-79
2022/07/13 07:27:05;;;;;;;14.67;11.70;;;;;;;;;;5007729;28;20034;-79
2022/07/13 07:29:30;;;;;;;17.58;11.35;;;;;;;;;;5019313;28;20273;-79
2022/07/13 07:31:56;;;;;;;11.90;9.53;;;;;;;;;;5021354;28;20073;-79
2022/07/13 07:34:21;;;;;;;14.65;9.35;;;;;;;;;;5004737;28;20302;-78
2022/07/13 07:36:46;;;;;;;13.63;8.73;;;;;;;;;;5027076;28;20453;-76
2022/07/13 07:39:12;;;;;;;17.48;9.98;;;;;;;;;;4999539;28;20279;-78
2022/07/13 07:41:37;;;;;;;15.02;10.15;;;;;;;;;;5021075;28;20166;-77
2022/07/13 07:44:04;;;;;;;16.85;8.65;;;;;;;;;;5012576;28;20472;-79
2022/07/13 07:46:29;;;;;;;13.30;8.88;;;;;;;;;;5019682;28;20037;-79
2022/07/13 07:48:55;;;;;;;13.95;8.73;;;;;;;;;;5024946;28;20052;-76
2022/07/13 07:51:20;;;;;;;14.88;9.02;;;;;;;;;;5023981;28;20029;-77
2022/07/13 07:53:45;;;;;;;15.63;9.33;;;;;;;;;;5017277;28;20026;-76
2022/07/13 07:56:10;;;;;;;11.40;9.23;;;;;;;;;;5022089;28;20638;-79
2022/07/13 07:58:39;;;;;;;13.13;8.15;;;;;;;;;;5021651;28;20052;-78
2022/07/13 08:01:04;;;;;;;13.68;7.97;;;;;;;;;;5021516;28;20481;-78
2022/07/13 08:03:29;;;;;;;13.43;9.65;;;;;;;;;;5015563;28;20033;-76
2022/07/13 08:05:57;;;;;;;14.80;8.98;;;;;;;;;;5017212;28;20046;-77
2022/07/13 08:08:22;;;;;;;13.43;10.20;;;;;;;;;;5006183;28;20401;-77
2022/07/13 08:10:47;;;;;;;12.65;9.32;;;;;;;;;;5020298;28;20029;-78
2022/07/13 08:13:13;;;;;;;11.88;9.43;;;;;;;;;;5019635;28;20018;-77
2022/07/13 08:15:38;;;;;;;12.38;8.93;;;;;;;;;;5020455;28;20024;-77
2022/07/13 08:18:03;;;;;;;11.82;8.55;;;;;;;;;;5020282;28;20037;-78
2022/07/13 08:20:29;;;;;;;11.23;9.10;;;;;;;;;;5005806;28;20022;-78
2022/07/13 08:22:54;;;;;;;13.85;7.88;;;;;;;;;;5004784;28;20033;-77
2022/07/13 08:25:19;;;;;;;12.38;8.23;;;;;;;;;;5026737;28;20259;-76
2022/07/13 08:27:45;;;;;;;10.95;7.50;;;;;;;;;;5020921;28;20033;-78
2022/07/13 08:30:11;;;;;;;9.93;7.75;;;;;;;;;;5018792;28;20017;-76
2022/07/13 08:32:36;;;;;;;10.68;8.07;;;;;;;;;;5008770;28;20025;-78
2022/07/13 08:40:33;;;;;;;8.85;7.47;;;;;;;;;;5025250;28;20045;-78
2022/07/13 08:42:59;;;;;;;12.45;7.90;;;;;;;;;;5025171;28;20033;-76
2022/07/13 08:45:25;;;;;;;11.75;7.05;;;;;;;;;;5029413;28;20038;-76
2022/07/13 08:47:51;;;;;;;8.45;7.28;;;;;;;;;;5019380;28;20041;-77
2022/07/13 08:50:20;;;;;;;11.88;7.05;;;;;;;;;;5031197;28;20386;-78
2022/07/13 08:52:45;;;;;;;9.57;7.30;;;;;;;;;;5026154;28;20059;-76
2022/07/13 08:55:11;;;;;;;14.23;7.63;;;;;;;;;;5006107;28;20116;-75
2022/07/13 08:57:37;;;;;;;12.88;7.72;;;;;;;;;;5023797;28;20025;-78
2022/07/13 09:00:05;;;;;;;8.18;7.32;;;;;;;;;;5026705;28;20021;-78
2022/07/13 09:02:30;;;;;;;8.45;6.85;;;;;;;;;;5011695;28;20025;-78
2022/07/13 09:04:56;;;;;;;11.80;7.07;;;;;;;;;;5029052;28;20377;-77
2022/07/13 09:07:21;;;;;;;9.57;7.25;;;;;;;;;;5034632;28;20108;-75
2022/07/13 09:09:52;;;;;;;11.60;7.60;;;;;;;;;;5032179;28;20033;-77
2022/07/13 09:12:19;;;;;;;10.70;7.07;;;;;;;;;;5012345;28;21025;-76
2022/07/13 09:14:50;;;;;;;11.15;6.65;;;;;;;;;;5010108;28;20021;-79
2022/07/13 09:17:43;;;;;;;8.52;6.30;;;;;;;;;;5026846;28;20543;-77
2022/07/13 09:20:08;;;;;;;;;;;;;;;;;;5011702;28;20604;-77
2022/07/13 09:22:36;;;;;;;12.70;7.22;;;;;;;;;;5027485;28;20429;-77
2022/07/13 09:25:01;;;;;;;9.50;6.18;;;;;;;;;;5026528;28;20053;-77
2022/07/13 09:27:26;;;;;;;8.50;6.53;;;;;;;;;;5012553;28;20456;-75
2022/07/13 09:29:52;;;;;;;9.27;6.60;;;;;;;;;;5024691;28;20297;-75
2022/07/13 09:32:17;;;;;;;7.40;5.53;;;;;;;;;;5023366;28;20286;-76
2022/07/13 09:34:46;;;;;;;10.35;7.30;;;;;;;;;;5024293;28;20119;-75
2022/07/13 09:37:12;;;;;;;6.60;4.78;;;;;;;;;;5024416;28;20021;-75
2022/07/13 09:39:54;;;;;;;10.10;5.20;;;;;;;;;;5020874;28;20443;-75
2022/07/13 09:42:26;;;;;;;9.13;5.82;;;;;;;;;;5018529;28;20037;-76
2022/07/13 09:47:46;;;;;;;7.20;4.65;;;;;;;;;;5024434;28;20511;-77
2022/07/13 09:50:12;;;;;;;12.32;5.50;;;;;;;;;;5027582;28;20052;-77
2022/07/13 09:52:37;;;;;;;6.18;5.07;;;;;;;;;;5010241;28;20029;-75
2022/07/13 09:55:04;;;;;;;5.95;4.25;;;;;;;;;;5027625;28;20026;-77
2022/07/13 09:57:32;;;;;;;8.00;5.05;;;;;;;;;;5012725;28;20021;-77
2022/07/13 09:59:58;;;;;;;6.75;4.68;;;;;;;;;;5022672;28;20278;-75
2022/07/13 10:02:24;;;;;;;6.53;4.65;;;;;;;;;;5010296;28;20552;-77
2022/07/13 10:04:49;;;;;;;5.88;4.38;;;;;;;;;;5024820;28;20493;-77
2022/07/13 10:07:15;;;;;;;4.30;3.90;;;;;;;;;;5005840;28;20085;-76
2022/07/13 10:09:41;;;;;;;6.22;3.65;;;;;;;;;;5006014;28;20429;-77
2022/07/13 10:12:10;;;;;;;7.43;4.03;;;;;;;;;;4998895;28;20545;-76
2022/07/13 10:14:36;;;;;;;4.30;3.90;;;;;;;;;;5014875;28;20106;-77
2022/07/13 10:17:06;;;;;;;4.60;3.88;;;;;;;;;;4997219;28;20044;-77
2022/07/13 10:19:33;;;;;;;8.38;4.20;;;;;;;;;;5002116;28;20536;-77
2022/07/13 10:22:09;;;;;;;9.43;4.47;;;;;;;;;;5003167;28;20045;-75
2022/07/13 10:24:35;;;;;;;5.75;4.00;;;;;;;;;;5004344;28;20446;-74
2022/07/13 10:27:18;;;;;;;5.55;3.72;;;;;;;;;;5002493;28;20319;-77
2022/07/13 10:29:50;;;;;;;5.25;3.85;;;;;;;;;;4996191;28;20037;-77
2022/07/13 10:32:17;;;;;;;5.82;3.65;;;;;;;;;;5018540;28;20113;-76
2022/07/13 10:35:11;;;;;;;4.65;3.35;;;;;;;;;;5005193;28;20022;-75
2022/07/13 10:37:55;;;;;;;4.18;3.55;;;;;;;;;;5004053;28;20088;-77
2022/07/13 10:40:21;;;;;;;5.97;3.40;;;;;;;;;;5019375;28;20911;-76
2022/07/13 10:42:53;;;;;;;4.97;2.90;;;;;;;;;;5006209;28;20037;-78
2022/07/13 10:45:34;;;;;;;5.30;3.40;;;;;;;;;;5006072;28;20037;-77
2022/07/13 10:48:00;;;;;;;8.00;4.93;;;;;;;;;;5019949;28;20410;-75
2022/07/13 10:50:34;;;;;;;8.23;3.15;;;;;;;;;;5005422;28;20026;-76
2022/07/13 10:53:00;;;;;;;5.95;3.47;;;;;;;;;;5001739;28;20037;-77
2022/07/13 10:55:29;;;;;;;4.43;3.40;;;;;;;;;;5021633;28;20034;-75
2022/07/13 10:57:54;;;;;;;3.33;3.03;;;;;;;;;;5018331;28;20394;-76
2022/07/13 11:00:35;;;;;;;8.45;3.25;;;;;;;;;;5006897;28;20033;-79
2022/07/13 11:03:06;;;;;;;8.45;3.10;;;;;;;;;;5003786;28;20030;-78
2022/07/13 11:05:35;;;;;;;4.47;3.22;;;;;;;;;;5006670;28;20061;-80
2022/07/13 11:08:11;;;;;;;5.53;3.40;;;;;;;;;;5005136;28;20026;-76
2022/07/13 11:10:36;;;;;;;4.72;3.42;;;;;;;;;;5024441;28;20096;-78
2022/07/13 11:13:09;;;;;;;4.10;3.70;;;;;;;;;;5008354;28;20056;-78
2022/07/13 11:15:50;;;;;;;6.22;3.88;;;;;;;;;;5006464;28;20021;-76
2022/07/13 11:18:21;;;;;;;7.93;4.97;;;;;;;;;;5025575;28;20021;-78
2022/07/13 11:20:59;;;;;;;7.40;4.97;;;;;;;;;;5027386;28;20026;-79
2022/07/13 11:26:15;;;;;;;6.68;4.63;;;;;;;;;;5024024;28;20395;-77
2022/07/13 11:28:47;;;;;;;9.40;4.65;;;;;;;;;;5021661;28;20026;-79
2022/07/13 11:31:12;;;;;;;6.47;4.20;;;;;;;;;;4997510;28;20150;-77
2022/07/13 11:33:38;;;;;;;5.00;3.60;;;;;;;;;;5025677;28;20037;-76
2022/07/13 11:36:03;;;;;;;4.97;3.50;;;;;;;;;;5027644;28;20282;-78
2022/07/13 11:38:35;;;;;;;6.55;4.07;;;;;;;;;;5029253;28;20274;-79
2022/07/13 11:41:01;;;;;;;4.45;3.22;;;;;;;;;;5031843;28;20029;-77
2022/07/13 11:43:26;;;;;;;3.50;3.20;;;;;;;;;;5022789;28;20170;-78
2022/07/13 11:45:51;;;;;;;3.97;3.17;;;;;;;;;;5035772;28;20111;-76
2022/07/13 11:48:16;;;;;;;3.65;3.17;;;;;;;;;;5031474;28;20025;-76
2022/07/13 11:50:42;;;;;;;5.67;2.90;;;;;;;;;;5033519;28;20477;-79
2022/07/13 11:53:07;;;;;;;4.68;3.00;;;;;;;;;;5030754;28;20290;-77
2022/07/13 11:55:34;;;;;;;5.97;3.25;;;;;;;;;;5021391;28;20018;-79
2022/07/13 11:57:59;;;;;;;3.65;3.20;;;;;;;;;;5033948;28;20103;-76
2022/07/13 12:00:28;;;;;;;4.53;3.25;;;;;;;;;;5035723;28;20021;-76
2022/07/13 12:02:55;;;;;;;7.47;3.22;;;;;;;;;;5011880;28;20091;-76
2022/07/13 12:05:21;;;;;;;4.05;3.30;;;;;;;;;;5030781;28;20436;-76
2022/07/13 12:07:59;;;;;;;3.47;2.97;;;;;;;;;;5037606;28;20029;-79
2022/07/13 12:10:27;;;;;;;6.28;3.30;;;;;;;;;;5022141;28;20094;-79
2022/07/13 12:12:53;;;;;;;5.28;3.53;;;;;;;;;;5014677;28;20044;-79
2022/07/13 12:15:21;;;;;;;3.67;3.33;;;;;;;;;;5016928;28;20014;-79
2022/07/13 12:17:50;;;;;;;4.70;2.95;;;;;;;;;;5015925;28;20026;-79
2022/07/13 12:20:20;;;;;;;6.03;3.30;;;;;;;;;;5013966;28;20737;-79
2022/07/13 12:22:52;;;;;;;6.25;3.60;;;;;;;;;;5021090;28;20104;-79
2022/07/13 12:25:34;;;;;;;5.35;3.58;;;;;;;;;;4999633;28;20029;-79
2022/07/13 12:28:00;;;;;;;7.82;4.25;;;;;;;;;;5023951;28;20029;-80
2022/07/13 12:30:31;;;;;;;5.45;3.45;;;;;;;;;;5020283;28;20037;-76
2022/07/13 12:32:57;;;;;;;4.72;3.40;;;;;;;;;;5002412;28;21888;-78
2022/07/13 12:35:35;;;;;;;3.88;3.00;;;;;;;;;;5021259;28;20025;-80
2022/07/13 12:38:02;;;;;;;6.93;3.50;;;;;;;;;;5023074;28;20516;-80
2022/07/13 12:40:36;;;;;;;3.92;2.75;;;;;;;;;;5007790;28;20025;-77
2022/07/13 12:43:03;;;;;;;5.53;3.00;;;;;;;;;;5024065;28;20541;-77
2022/07/13 12:45:31;;;;;;;6.20;3.22;;;;;;;;;;5006083;28;20053;-80
2022/07/13 12:47:56;;;;;;;4.63;2.60;;;;;;;;;;5006447;28;20037;-80
2022/07/13 12:50:29;;;;;;;3.00;2.70;;;;;;;;;;5025419;28;20053;-78
2022/07/13 12:53:01;;;;;;;4.38;2.97;;;;;;;;;;5027425;28;20049;-78
2022/07/13 12:55:27;;;;;;;6.65;3.28;;;;;;;;;;5026817;28;20543;-79
2022/07/13 12:57:52;;;;;;;6.60;3.15;;;;;;;;;;5024999;28;20029;-79
2022/07/13 13:00:27;;;;;;;5.43;2.97;;;;;;;;;;5028275;28;20063;-82
2022/07/13 13:02:52;;;;;;;4.65;2.92;;;;;;;;;;5027091;28;20033;-76
2022/07/13 13:05:17;;;;;;;4.57;3.50;;;;;;;;;;5005574;28;20042;-80
2022/07/13 13:07:43;;;;;;;4.40;2.80;;;;;;;;;;5019272;28;20746;-84
2022/07/13 13:10:08;;;;;;;7.00;3.03;;;;;;;;;;5009609;28;20025;-78
2022/07/13 13:12:34;;;;;;;6.72;3.15;;;;;;;;;;5026794;28;20049;-84
2022/07/13 13:14:59;;;;;;;4.07;3.00;;;;;;;;;;5025995;28;20018;-78
2022/07/13 13:17:25;;;;;;;6.65;2.85;;;;;;;;;;5027136;28;20385;-84
2022/07/13 13:19:50;;;;;;;5.53;3.28;;;;;;;;;;5013321;28;20284;-82
2022/07/13 13:22:16;;;;;;;6.38;3.33;;;;;;;;;;5025428;28;20021;-78
2022/07/13 13:24:41;;;;;;;5.13;2.58;;;;;;;;;;5027094;28;20113;-83
2022/07/13 13:27:06;;;;;;;5.63;3.05;;;;;;;;;;5027873;28;20108;-77
2022/07/13 13:32:16;;;;;;;6.10;3.25;;;;;;;;;;5031152;28;20531;-83
2022/07/13 13:34:41;;;;;;;4.40;2.83;;;;;;;;;;5031745;28;20021;-81
2022/07/13 13:37:06;;;;;;;3.72;2.72;;;;;;;;;;5013886;28;20080;-84
2022/07/13 13:39:32;;;;;;;5.47;3.00;;;;;;;;;;5033525;28;20032;-82
2022/07/13 13:41:57;;;;;;;3.17;2.88;;;;;;;;;;5022907;28;20495;-78
2022/07/13 13:44:22;;;;;;;4.93;3.20;;;;;;;;;;5029946;28;20041;-79
2022/07/13 13:46:47;;;;;;;5.88;3.30;;;;;;;;;;5024407;28;20290;-78
2022/07/13 13:49:13;;;;;;;4.27;3.27;;;;;;;;;;5011311;28;20057;-78
2022/07/13 13:51:39;;;;;;;6.15;3.40;;;;;;;;;;5008077;28;20279;-83
2022/07/13 13:54:04;;;;;;;4.60;2.90;;;;;;;;;;5026988;28;20615;-82
2022/07/13 13:56:29;;;;;;;4.95;3.17;;;;;;;;;;5013698;28;20030;-86
2022/07/13 13:58:54;;;;;;;4.75;3.53;;;;;;;;;;5008081;28;20018;-83
2022/07/13 14:01:20;;;;;;;3.75;3.20;;;;;;;;;;5031378;28;20444;-78
2022/07/13 14:03:46;;;;;;;7.20;3.53;;;;;;;;;;5024130;28;20021;-82
2022/07/13 14:06:12;;;;;;;5.35;2.67;;;;;;;;;;5024367;28;20053;-81
2022/07/13 14:08:38;;;;;;;3.33;3.03;;;;;;;;;;5008859;28;20032;-78
2022/07/13 14:11:03;;;;;;;3.60;2.90;;;;;;;;;;5010802;28;20033;-81
2022/07/13 14:13:28;;;;;;;4.20;2.95;;;;;;;;;;5024138;28;20436;-84
2022/07/13 14:15:53;;;;;;;3.92;3.35;;;;;;;;;;5009402;28;20033;-79
2022/07/13 14:18:20;;;;;;;5.00;3.20;;;;;;;;;;5005232;28;20073;-81
2022/07/13 14:20:45;;;;;;;3.30;2.55;;;;;;;;;;5014844;28;20296;-78
2022/07/13 14:23:11;;;;;;;4.88;3.35;;;;;;;;;;5014036;28;20119;-79
2022/07/13 14:25:36;;;;;;;5.93;3.00;;;;;;;;;;5012927;28;20021;-79
2022/07/13 14:28:01;;;;;;;5.18;3.22;;;;;;;;;;5028067;28;20352;-84
2022/07/13 14:30:27;;;;;;;5.10;3.20;;;;;;;;;;5026782;28;20060;-82
2022/07/13 14:32:52;;;;;;;3.63;3.00;;;;;;;;;;5025247;28;20024;-79
2022/07/13 14:35:17;;;;;;;5.10;3.23;;;;;;;;;;5025169;28;20394;-79
2022/07/13 14:37:47;;;;;;;5.13;3.08;;;;;;;;;;5023009;28;20294;-78
2022/07/13 14:40:12;;;;;;;4.10;3.22;;;;;;;;;;5027415;28;20025;-80
2022/07/13 14:42:37;;;;;;;4.60;3.25;;;;;;;;;;5009083;28;20036;-79
2022/07/13 14:45:03;;;;;;;5.93;2.72;;;;;;;;;;5006639;28;20020;-84
2022/07/13 14:47:28;;;;;;;6.95;3.00;;;;;;;;;;5011177;28;20056;-85
2022/07/13 14:49:53;;;;;;;4.97;2.90;;;;;;;;;;5029537;28;20034;-82